sensor_id;sensor_type;location;lat;lon;timestamp;P1;durP1;ratioP1;P2;durP2;ratioP2
47866;SDS011;33628;50.806;11.586;2023-11-22T00:01:52;20.27;;;9.60;;
47866;SDS011;33628;50.806;11.586;2023-11-22T00:04:19;19.13;;;9.32;;
47866;SDS011;33628;50.806;11.586;2023-11-22T00:06:47;19.88;;;10.23;;
47866;SDS011;33628;50.806;11.586;2023-11-22T00:09:14;20.92;;;10.30;;
47866;SDS011;33628;50.806;11.586;2023-11-22T00:11:40;17.35;;;9.55;;
47866;SDS011;33628;50.806;11.586;2023-11-22T00:14:07;20.92;;;9.88;;
47866;SDS011;33628;50.806;11.586;2023-11-22T00:16:33;16.73;;;8.45;;
47866;SDS011;33628;50.806;11.586;2023-11-22T00:19:03;19.50;;;9.45;;
47866;SDS011;33628;50.806;11.586;2023-11-22T00:21:29;18.60;;;9.77;;
47866;SDS011;33628;50.806;11.586;2023-11-22T00:23:58;20.90;;;9.98;;
47866;SDS011;33628;50.806;11.586;2023-11-22T00:26:24;19.25;;;8.43;;
47866;SDS011;33628;50.806;11.586;2023-11-22T00:28:56;22.13;;;10.65;;
47866;SDS011;33628;50.806;11.586;2023-11-22T00:31:23;24.75;;;9.85;;
47866;SDS011;33628;50.806;11.586;2023-11-22T00:33:50;30.95;;;10.05;;
47866;SDS011;33628;50.806;11.586;2023-11-22T00:36:17;22.88;;;10.77;;
47866;SDS011;33628;50.806;11.586;2023-11-22T00:38:43;23.75;;;11.13;;
47866;SDS011;33628;50.806;11.586;2023-11-22T00:41:12;23.00;;;11.55;;
47866;SDS011;33628;50.806;11.586;2023-11-22T00:43:40;26.50;;;11.93;;
47866;SDS011;33628;50.806;11.586;2023-11-22T00:46:07;24.05;;;11.02;;
47866;SDS011;33628;50.806;11.586;2023-11-22T00:48:34;33.53;;;11.55;;
47866;SDS011;33628;50.806;11.586;2023-11-22T00:51:01;27.58;;;12.15;;
47866;SDS011;33628;50.806;11.586;2023-11-22T00:53:34;27.08;;;11.38;;
47866;SDS011;33628;50.806;11.586;2023-11-22T00:56:03;28.73;;;13.35;;
47866;SDS011;33628;50.806;11.586;2023-11-22T00:58:31;26.70;;;11.80;;
47866;SDS011;33628;50.806;11.586;2023-11-22T01:00:58;31.33;;;13.45;;
47866;SDS011;33628;50.806;11.586;2023-11-22T01:03:25;30.25;;;13.15;;
47866;SDS011;33628;50.806;11.586;2023-11-22T01:05:52;32.95;;;13.95;;
47866;SDS011;33628;50.806;11.586;2023-11-22T01:08:18;27.65;;;13.23;;
47866;SDS011;33628;50.806;11.586;2023-11-22T01:10:45;31.30;;;13.93;;
47866;SDS011;33628;50.806;11.586;2023-11-22T01:13:12;29.85;;;15.15;;
47866;SDS011;33628;50.806;11.586;2023-11-22T01:15:41;32.13;;;13.43;;
47866;SDS011;33628;50.806;11.586;2023-11-22T01:18:10;25.83;;;11.38;;
47866;SDS011;33628;50.806;11.586;2023-11-22T01:20:36;24.92;;;11.23;;
47866;SDS011;33628;50.806;11.586;2023-11-22T01:23:03;26.25;;;11.80;;
47866;SDS011;33628;50.806;11.586;2023-11-22T01:25:30;23.40;;;11.38;;
47866;SDS011;33628;50.806;11.586;2023-11-22T01:27:56;23.83;;;12.57;;
47866;SDS011;33628;50.806;11.586;2023-11-22T01:30:23;21.52;;;11.65;;
47866;SDS011;33628;50.806;11.586;2023-11-22T01:32:51;23.98;;;11.77;;
47866;SDS011;33628;50.806;11.586;2023-11-22T01:35:17;25.30;;;11.82;;
47866;SDS011;33628;50.806;11.586;2023-11-22T01:37:46;27.45;;;11.60;;
47866;SDS011;33628;50.806;11.586;2023-11-22T01:40:13;22.58;;;11.57;;
47866;SDS011;33628;50.806;11.586;2023-11-22T01:42:39;22.70;;;11.43;;
47866;SDS011;33628;50.806;11.586;2023-11-22T01:45:06;21.05;;;10.90;;
47866;SDS011;33628;50.806;11.586;2023-11-22T01:47:34;22.85;;;10.95;;
47866;SDS011;33628;50.806;11.586;2023-11-22T01:50:03;25.10;;;12.05;;
47866;SDS011;33628;50.806;11.586;2023-11-22T01:52:31;23.58;;;11.68;;
47866;SDS011;33628;50.806;11.586;2023-11-22T01:54:58;22.98;;;11.18;;
47866;SDS011;33628;50.806;11.586;2023-11-22T01:57:24;21.77;;;12.05;;
47866;SDS011;33628;50.806;11.586;2023-11-22T01:59:51;22.10;;;10.73;;
47866;SDS011;33628;50.806;11.586;2023-11-22T02:02:18;20.25;;;10.45;;
47866;SDS011;33628;50.806;11.586;2023-11-22T02:04:45;19.73;;;10.55;;
47866;SDS011;33628;50.806;11.586;2023-11-22T02:07:13;21.17;;;9.85;;
47866;SDS011;33628;50.806;11.586;2023-11-22T02:09:40;19.88;;;10.68;;
47866;SDS011;33628;50.806;11.586;2023-11-22T02:12:07;20.35;;;10.30;;
47866;SDS011;33628;50.806;11.586;2023-11-22T02:14:34;23.38;;;11.73;;
47866;SDS011;33628;50.806;11.586;2023-11-22T02:17:01;18.92;;;10.93;;
47866;SDS011;33628;50.806;11.586;2023-11-22T02:19:27;21.77;;;10.63;;
47866;SDS011;33628;50.806;11.586;2023-11-22T02:21:56;21.33;;;10.77;;
47866;SDS011;33628;50.806;11.586;2023-11-22T02:24:24;23.50;;;12.02;;
47866;SDS011;33628;50.806;11.586;2023-11-22T02:26:50;21.85;;;11.10;;
47866;SDS011;33628;50.806;11.586;2023-11-22T02:29:17;22.42;;;11.68;;
47866;SDS011;33628;50.806;11.586;2023-11-22T02:31:44;23.35;;;12.27;;
47866;SDS011;33628;50.806;11.586;2023-11-22T02:34:10;22.45;;;12.05;;
47866;SDS011;33628;50.806;11.586;2023-11-22T02:36:37;21.63;;;10.93;;
47866;SDS011;33628;50.806;11.586;2023-11-22T02:39:04;24.95;;;12.63;;
47866;SDS011;33628;50.806;11.586;2023-11-22T02:41:33;23.63;;;12.00;;
47866;SDS011;33628;50.806;11.586;2023-11-22T02:44:00;23.67;;;12.48;;
47866;SDS011;33628;50.806;11.586;2023-11-22T02:46:27;20.10;;;10.95;;
47866;SDS011;33628;50.806;11.586;2023-11-22T02:48:55;21.08;;;10.95;;
47866;SDS011;33628;50.806;11.586;2023-11-22T02:51:24;22.80;;;11.68;;
47866;SDS011;33628;50.806;11.586;2023-11-22T02:53:51;23.20;;;11.10;;
47866;SDS011;33628;50.806;11.586;2023-11-22T02:56:19;16.55;;;8.85;;
47866;SDS011;33628;50.806;11.586;2023-11-22T02:58:48;17.65;;;9.38;;
47866;SDS011;33628;50.806;11.586;2023-11-22T03:01:15;21.67;;;9.60;;
47866;SDS011;33628;50.806;11.586;2023-11-22T03:03:41;21.20;;;9.63;;
47866;SDS011;33628;50.806;11.586;2023-11-22T03:06:08;18.33;;;8.63;;
47866;SDS011;33628;50.806;11.586;2023-11-22T03:08:34;17.90;;;8.80;;
47866;SDS011;33628;50.806;11.586;2023-11-22T03:11:01;14.38;;;8.40;;
47866;SDS011;33628;50.806;11.586;2023-11-22T03:13:28;15.25;;;7.40;;
47866;SDS011;33628;50.806;11.586;2023-11-22T03:15:56;17.10;;;9.20;;
47866;SDS011;33628;50.806;11.586;2023-11-22T03:18:23;18.00;;;8.93;;
47866;SDS011;33628;50.806;11.586;2023-11-22T03:20:49;17.73;;;8.75;;
47866;SDS011;33628;50.806;11.586;2023-11-22T03:23:20;16.40;;;8.15;;
47866;SDS011;33628;50.806;11.586;2023-11-22T03:25:48;13.82;;;7.95;;
47866;SDS011;33628;50.806;11.586;2023-11-22T03:28:14;15.32;;;7.93;;
47866;SDS011;33628;50.806;11.586;2023-11-22T03:30:41;16.05;;;8.73;;
47866;SDS011;33628;50.806;11.586;2023-11-22T03:33:09;14.65;;;7.38;;
47866;SDS011;33628;50.806;11.586;2023-11-22T03:35:36;17.48;;;8.18;;
47866;SDS011;33628;50.806;11.586;2023-11-22T03:38:03;18.75;;;8.55;;
47866;SDS011;33628;50.806;11.586;2023-11-22T03:40:30;16.33;;;8.30;;
47866;SDS011;33628;50.806;11.586;2023-11-22T03:42:57;16.63;;;8.30;;
47866;SDS011;33628;50.806;11.586;2023-11-22T03:45:23;15.13;;;8.05;;
47866;SDS011;33628;50.806;11.586;2023-11-22T03:47:50;17.58;;;8.35;;
47866;SDS011;33628;50.806;11.586;2023-11-22T03:50:18;13.73;;;6.95;;
47866;SDS011;33628;50.806;11.586;2023-11-22T03:52:45;15.88;;;8.02;;
47866;SDS011;33628;50.806;11.586;2023-11-22T03:55:13;16.35;;;8.20;;
47866;SDS011;33628;50.806;11.586;2023-11-22T03:57:40;17.52;;;7.93;;
47866;SDS011;33628;50.806;11.586;2023-11-22T04:00:07;15.35;;;8.23;;
47866;SDS011;33628;50.806;11.586;2023-11-22T04:02:41;20.00;;;8.55;;
47866;SDS011;33628;50.806;11.586;2023-11-22T04:05:08;14.85;;;8.00;;
47866;SDS011;33628;50.806;11.586;2023-11-22T04:07:38;19.17;;;8.95;;
47866;SDS011;33628;50.806;11.586;2023-11-22T04:10:05;16.30;;;7.93;;
47866;SDS011;33628;50.806;11.586;2023-11-22T04:12:32;15.63;;;8.00;;
47866;SDS011;33628;50.806;11.586;2023-11-22T04:14:59;15.45;;;7.82;;
47866;SDS011;33628;50.806;11.586;2023-11-22T04:17:26;15.00;;;7.75;;
47866;SDS011;33628;50.806;11.586;2023-11-22T04:19:53;16.52;;;8.38;;
47866;SDS011;33628;50.806;11.586;2023-11-22T04:22:19;15.23;;;7.55;;
47866;SDS011;33628;50.806;11.586;2023-11-22T04:24:47;18.08;;;8.07;;
47866;SDS011;33628;50.806;11.586;2023-11-22T04:27:14;16.45;;;8.65;;
47866;SDS011;33628;50.806;11.586;2023-11-22T04:29:40;13.43;;;7.90;;
47866;SDS011;33628;50.806;11.586;2023-11-22T04:32:07;15.35;;;7.72;;
47866;SDS011;33628;50.806;11.586;2023-11-22T04:34:33;13.95;;;6.53;;
47866;SDS011;33628;50.806;11.586;2023-11-22T04:37:01;13.43;;;7.32;;
47866;SDS011;33628;50.806;11.586;2023-11-22T04:39:27;15.38;;;7.82;;
47866;SDS011;33628;50.806;11.586;2023-11-22T04:41:56;14.98;;;7.55;;
47866;SDS011;33628;50.806;11.586;2023-11-22T04:44:23;15.35;;;7.55;;
47866;SDS011;33628;50.806;11.586;2023-11-22T04:46:50;19.65;;;8.50;;
47866;SDS011;33628;50.806;11.586;2023-11-22T04:49:17;15.70;;;7.60;;
47866;SDS011;33628;50.806;11.586;2023-11-22T04:51:44;15.85;;;8.02;;
47866;SDS011;33628;50.806;11.586;2023-11-22T04:54:11;15.50;;;7.22;;
47866;SDS011;33628;50.806;11.586;2023-11-22T04:56:38;15.13;;;7.88;;
47866;SDS011;33628;50.806;11.586;2023-11-22T04:59:06;17.55;;;8.40;;
47866;SDS011;33628;50.806;11.586;2023-11-22T05:01:33;11.65;;;6.80;;
47866;SDS011;33628;50.806;11.586;2023-11-22T05:03:59;18.08;;;7.60;;
47866;SDS011;33628;50.806;11.586;2023-11-22T05:06:26;13.85;;;6.90;;
47866;SDS011;33628;50.806;11.586;2023-11-22T05:08:54;13.23;;;6.95;;
47866;SDS011;33628;50.806;11.586;2023-11-22T05:11:21;13.45;;;6.35;;
47866;SDS011;33628;50.806;11.586;2023-11-22T05:13:48;14.43;;;6.88;;
47866;SDS011;33628;50.806;11.586;2023-11-22T05:16:17;12.73;;;6.65;;
47866;SDS011;33628;50.806;11.586;2023-11-22T05:18:44;13.68;;;6.57;;
47866;SDS011;33628;50.806;11.586;2023-11-22T05:21:11;12.95;;;5.70;;
47866;SDS011;33628;50.806;11.586;2023-11-22T05:23:37;15.05;;;6.50;;
47866;SDS011;33628;50.806;11.586;2023-11-22T05:26:04;13.57;;;7.05;;
47866;SDS011;33628;50.806;11.586;2023-11-22T05:28:31;12.63;;;6.88;;
47866;SDS011;33628;50.806;11.586;2023-11-22T05:30:57;12.63;;;6.28;;
47866;SDS011;33628;50.806;11.586;2023-11-22T05:33:25;14.32;;;6.75;;
47866;SDS011;33628;50.806;11.586;2023-11-22T05:35:52;11.23;;;5.78;;
47866;SDS011;33628;50.806;11.586;2023-11-22T05:38:19;10.52;;;5.88;;
47866;SDS011;33628;50.806;11.586;2023-11-22T05:40:49;12.43;;;6.00;;
47866;SDS011;33628;50.806;11.586;2023-11-22T05:43:15;10.45;;;6.00;;
47866;SDS011;33628;50.806;11.586;2023-11-22T05:45:43;9.82;;;6.32;;
47866;SDS011;33628;50.806;11.586;2023-11-22T05:48:14;12.15;;;6.07;;
47866;SDS011;33628;50.806;11.586;2023-11-22T05:50:42;10.10;;;5.72;;
47866;SDS011;33628;50.806;11.586;2023-11-22T05:53:09;16.33;;;6.63;;
47866;SDS011;33628;50.806;11.586;2023-11-22T05:55:36;14.90;;;6.00;;
47866;SDS011;33628;50.806;11.586;2023-11-22T05:58:03;11.95;;;5.97;;
47866;SDS011;33628;50.806;11.586;2023-11-22T06:00:30;10.63;;;6.30;;
47866;SDS011;33628;50.806;11.586;2023-11-22T06:02:56;9.90;;;5.53;;
47866;SDS011;33628;50.806;11.586;2023-11-22T06:05:23;10.27;;;5.53;;
47866;SDS011;33628;50.806;11.586;2023-11-22T06:07:52;12.05;;;5.82;;
47866;SDS011;33628;50.806;11.586;2023-11-22T06:10:18;14.27;;;6.50;;
47866;SDS011;33628;50.806;11.586;2023-11-22T06:12:45;12.15;;;6.00;;
47866;SDS011;33628;50.806;11.586;2023-11-22T06:15:12;8.70;;;5.07;;
47866;SDS011;33628;50.806;11.586;2023-11-22T06:17:38;10.52;;;5.30;;
47866;SDS011;33628;50.806;11.586;2023-11-22T06:20:05;10.80;;;5.60;;
47866;SDS011;33628;50.806;11.586;2023-11-22T06:22:33;12.65;;;5.72;;
47866;SDS011;33628;50.806;11.586;2023-11-22T06:25:01;11.20;;;6.20;;
47866;SDS011;33628;50.806;11.586;2023-11-22T06:27:28;11.10;;;5.88;;
47866;SDS011;33628;50.806;11.586;2023-11-22T06:29:54;13.82;;;5.68;;
47866;SDS011;33628;50.806;11.586;2023-11-22T06:32:21;9.27;;;5.28;;
47866;SDS011;33628;50.806;11.586;2023-11-22T06:34:47;12.35;;;5.03;;
47866;SDS011;33628;50.806;11.586;2023-11-22T06:37:14;15.05;;;5.97;;
47866;SDS011;33628;50.806;11.586;2023-11-22T06:39:41;13.07;;;5.90;;
47866;SDS011;33628;50.806;11.586;2023-11-22T06:42:09;9.32;;;5.20;;
47866;SDS011;33628;50.806;11.586;2023-11-22T06:44:36;17.13;;;6.78;;
47866;SDS011;33628;50.806;11.586;2023-11-22T06:47:03;15.40;;;6.88;;
47866;SDS011;33628;50.806;11.586;2023-11-22T06:49:30;11.88;;;6.43;;
47866;SDS011;33628;50.806;11.586;2023-11-22T06:51:56;12.25;;;6.50;;
47866;SDS011;33628;50.806;11.586;2023-11-22T06:54:23;12.60;;;6.40;;
47866;SDS011;33628;50.806;11.586;2023-11-22T06:56:50;15.50;;;6.05;;
47866;SDS011;33628;50.806;11.586;2023-11-22T06:59:18;14.27;;;6.32;;
47866;SDS011;33628;50.806;11.586;2023-11-22T07:01:45;19.50;;;6.90;;
47866;SDS011;33628;50.806;11.586;2023-11-22T07:04:11;12.88;;;6.28;;
47866;SDS011;33628;50.806;11.586;2023-11-22T07:06:38;13.25;;;6.47;;
47866;SDS011;33628;50.806;11.586;2023-11-22T07:09:05;12.65;;;6.43;;
47866;SDS011;33628;50.806;11.586;2023-11-22T07:11:35;11.60;;;6.18;;
47866;SDS011;33628;50.806;11.586;2023-11-22T07:14:03;12.13;;;5.85;;
47866;SDS011;33628;50.806;11.586;2023-11-22T07:16:31;13.15;;;6.03;;
47866;SDS011;33628;50.806;11.586;2023-11-22T07:18:59;13.80;;;6.65;;
47866;SDS011;33628;50.806;11.586;2023-11-22T07:21:28;16.05;;;6.68;;
47866;SDS011;33628;50.806;11.586;2023-11-22T07:23:58;13.90;;;7.07;;
47866;SDS011;33628;50.806;11.586;2023-11-22T07:26:25;14.18;;;7.68;;
47866;SDS011;33628;50.806;11.586;2023-11-22T07:28:54;13.07;;;7.03;;
47866;SDS011;33628;50.806;11.586;2023-11-22T07:31:21;15.52;;;7.32;;
47866;SDS011;33628;50.806;11.586;2023-11-22T07:33:49;17.85;;;7.10;;
47866;SDS011;33628;50.806;11.586;2023-11-22T07:36:17;14.13;;;6.88;;
47866;SDS011;33628;50.806;11.586;2023-11-22T07:38:44;17.73;;;8.13;;
47866;SDS011;33628;50.806;11.586;2023-11-22T07:41:10;20.23;;;8.43;;
47866;SDS011;33628;50.806;11.586;2023-11-22T07:43:37;17.80;;;7.35;;
47866;SDS011;33628;50.806;11.586;2023-11-22T07:46:04;18.67;;;9.40;;
47866;SDS011;33628;50.806;11.586;2023-11-22T07:48:34;21.00;;;9.68;;
47866;SDS011;33628;50.806;11.586;2023-11-22T07:51:04;16.38;;;7.75;;
47866;SDS011;33628;50.806;11.586;2023-11-22T07:53:31;13.43;;;6.68;;
47866;SDS011;33628;50.806;11.586;2023-11-22T07:56:00;13.05;;;6.90;;
47866;SDS011;33628;50.806;11.586;2023-11-22T07:58:30;18.50;;;7.45;;
47866;SDS011;33628;50.806;11.586;2023-11-22T08:00:57;13.25;;;6.20;;
47866;SDS011;33628;50.806;11.586;2023-11-22T08:03:25;14.93;;;7.13;;
47866;SDS011;33628;50.806;11.586;2023-11-22T08:05:52;15.10;;;6.35;;
47866;SDS011;33628;50.806;11.586;2023-11-22T08:08:23;16.92;;;7.88;;
47866;SDS011;33628;50.806;11.586;2023-11-22T08:10:50;19.48;;;7.40;;
47866;SDS011;33628;50.806;11.586;2023-11-22T08:13:19;16.23;;;7.60;;
47866;SDS011;33628;50.806;11.586;2023-11-22T08:15:48;22.92;;;8.48;;
47866;SDS011;33628;50.806;11.586;2023-11-22T08:18:15;17.85;;;7.20;;
47866;SDS011;33628;50.806;11.586;2023-11-22T08:20:42;16.73;;;7.63;;
47866;SDS011;33628;50.806;11.586;2023-11-22T08:23:09;14.88;;;6.95;;
47866;SDS011;33628;50.806;11.586;2023-11-22T08:25:39;12.35;;;6.25;;
47866;SDS011;33628;50.806;11.586;2023-11-22T08:28:05;14.30;;;6.95;;
47866;SDS011;33628;50.806;11.586;2023-11-22T08:30:34;16.15;;;6.93;;
47866;SDS011;33628;50.806;11.586;2023-11-22T08:33:01;15.85;;;7.65;;
47866;SDS011;33628;50.806;11.586;2023-11-22T08:35:28;14.50;;;6.95;;
47866;SDS011;33628;50.806;11.586;2023-11-22T08:37:54;16.55;;;7.50;;
47866;SDS011;33628;50.806;11.586;2023-11-22T08:40:23;14.82;;;7.70;;
47866;SDS011;33628;50.806;11.586;2023-11-22T08:42:53;14.05;;;7.45;;
47866;SDS011;33628;50.806;11.586;2023-11-22T08:45:19;14.77;;;7.13;;
47866;SDS011;33628;50.806;11.586;2023-11-22T08:47:46;11.63;;;6.72;;
47866;SDS011;33628;50.806;11.586;2023-11-22T08:50:13;12.73;;;6.78;;
47866;SDS011;33628;50.806;11.586;2023-11-22T08:52:41;11.25;;;6.55;;
47866;SDS011;33628;50.806;11.586;2023-11-22T08:55:08;11.00;;;6.28;;
47866;SDS011;33628;50.806;11.586;2023-11-22T08:57:35;12.73;;;6.50;;
47866;SDS011;33628;50.806;11.586;2023-11-22T09:00:05;11.80;;;6.75;;
47866;SDS011;33628;50.806;11.586;2023-11-22T09:02:34;10.68;;;6.18;;
47866;SDS011;33628;50.806;11.586;2023-11-22T09:05:01;9.73;;;6.57;;
47866;SDS011;33628;50.806;11.586;2023-11-22T09:07:32;10.23;;;6.07;;
47866;SDS011;33628;50.806;11.586;2023-11-22T09:10:00;10.63;;;6.55;;
47866;SDS011;33628;50.806;11.586;2023-11-22T09:12:35;13.77;;;6.63;;
47866;SDS011;33628;50.806;11.586;2023-11-22T09:15:05;13.55;;;6.93;;
47866;SDS011;33628;50.806;11.586;2023-11-22T09:17:35;10.90;;;7.43;;
47866;SDS011;33628;50.806;11.586;2023-11-22T09:20:02;11.10;;;6.90;;
47866;SDS011;33628;50.806;11.586;2023-11-22T09:22:32;9.73;;;6.50;;
47866;SDS011;33628;50.806;11.586;2023-11-22T09:24:58;12.30;;;7.00;;
47866;SDS011;33628;50.806;11.586;2023-11-22T09:27:25;9.00;;;6.32;;
47866;SDS011;33628;50.806;11.586;2023-11-22T09:29:52;9.73;;;6.40;;
47866;SDS011;33628;50.806;11.586;2023-11-22T09:32:21;7.90;;;5.97;;
47866;SDS011;33628;50.806;11.586;2023-11-22T09:34:49;11.07;;;6.50;;
47866;SDS011;33628;50.806;11.586;2023-11-22T09:37:16;10.43;;;6.57;;
47866;SDS011;33628;50.806;11.586;2023-11-22T09:39:42;11.02;;;6.57;;
47866;SDS011;33628;50.806;11.586;2023-11-22T09:42:10;10.48;;;6.03;;
47866;SDS011;33628;50.806;11.586;2023-11-22T09:44:39;9.93;;;6.13;;
47866;SDS011;33628;50.806;11.586;2023-11-22T09:47:06;11.13;;;6.57;;
47866;SDS011;33628;50.806;11.586;2023-11-22T09:49:34;11.90;;;6.07;;
47866;SDS011;33628;50.806;11.586;2023-11-22T09:52:02;9.88;;;5.93;;
47866;SDS011;33628;50.806;11.586;2023-11-22T09:54:29;10.75;;;6.13;;
47866;SDS011;33628;50.806;11.586;2023-11-22T09:56:59;10.13;;;5.93;;
47866;SDS011;33628;50.806;11.586;2023-11-22T09:59:28;12.35;;;6.32;;
47866;SDS011;33628;50.806;11.586;2023-11-22T10:01:55;14.45;;;7.93;;
47866;SDS011;33628;50.806;11.586;2023-11-22T10:04:25;13.25;;;7.10;;
47866;SDS011;33628;50.806;11.586;2023-11-22T10:06:56;11.23;;;5.95;;
47866;SDS011;33628;50.806;11.586;2023-11-22T10:09:24;10.73;;;6.22;;
47866;SDS011;33628;50.806;11.586;2023-11-22T10:11:53;11.75;;;6.30;;
47866;SDS011;33628;50.806;11.586;2023-11-22T10:14:24;11.95;;;6.00;;
47866;SDS011;33628;50.806;11.586;2023-11-22T10:16:59;13.82;;;6.78;;
47866;SDS011;33628;50.806;11.586;2023-11-22T10:19:26;11.82;;;7.00;;
47866;SDS011;33628;50.806;11.586;2023-11-22T10:22:05;11.50;;;6.15;;
47866;SDS011;33628;50.806;11.586;2023-11-22T10:24:32;11.85;;;7.30;;
47866;SDS011;33628;50.806;11.586;2023-11-22T10:27:02;11.75;;;6.85;;
47866;SDS011;33628;50.806;11.586;2023-11-22T10:29:29;11.48;;;6.55;;
47866;SDS011;33628;50.806;11.586;2023-11-22T10:31:56;14.77;;;7.70;;
47866;SDS011;33628;50.806;11.586;2023-11-22T10:34:24;12.45;;;6.53;;
47866;SDS011;33628;50.806;11.586;2023-11-22T10:36:51;12.18;;;6.70;;
47866;SDS011;33628;50.806;11.586;2023-11-22T10:39:21;26.67;;;11.60;;
47866;SDS011;33628;50.806;11.586;2023-11-22T10:41:47;22.08;;;10.15;;
47866;SDS011;33628;50.806;11.586;2023-11-22T10:44:18;17.80;;;9.10;;
47866;SDS011;33628;50.806;11.586;2023-11-22T10:46:46;15.02;;;8.05;;
47866;SDS011;33628;50.806;11.586;2023-11-22T10:49:13;11.77;;;6.72;;
47866;SDS011;33628;50.806;11.586;2023-11-22T10:51:40;10.60;;;6.88;;
47866;SDS011;33628;50.806;11.586;2023-11-22T10:54:07;12.30;;;6.75;;
47866;SDS011;33628;50.806;11.586;2023-11-22T10:56:38;12.18;;;6.53;;
47866;SDS011;33628;50.806;11.586;2023-11-22T10:59:09;11.65;;;6.78;;
47866;SDS011;33628;50.806;11.586;2023-11-22T11:01:38;12.63;;;6.70;;
47866;SDS011;33628;50.806;11.586;2023-11-22T11:04:14;16.58;;;7.40;;
47866;SDS011;33628;50.806;11.586;2023-11-22T11:06:45;16.42;;;7.30;;
47866;SDS011;33628;50.806;11.586;2023-11-22T11:09:15;14.73;;;6.90;;
47866;SDS011;33628;50.806;11.586;2023-11-22T11:11:46;13.40;;;8.38;;
47866;SDS011;33628;50.806;11.586;2023-11-22T11:14:13;12.95;;;7.00;;
47866;SDS011;33628;50.806;11.586;2023-11-22T11:16:41;14.55;;;7.13;;
47866;SDS011;33628;50.806;11.586;2023-11-22T11:19:13;11.88;;;7.18;;
47866;SDS011;33628;50.806;11.586;2023-11-22T11:21:41;12.40;;;6.00;;
47866;SDS011;33628;50.806;11.586;2023-11-22T11:24:08;10.80;;;6.35;;
47866;SDS011;33628;50.806;11.586;2023-11-22T11:26:35;11.38;;;5.85;;
47866;SDS011;33628;50.806;11.586;2023-11-22T11:29:03;10.80;;;6.00;;
47866;SDS011;33628;50.806;11.586;2023-11-22T11:31:31;11.23;;;6.50;;
47866;SDS011;33628;50.806;11.586;2023-11-22T11:34:05;10.40;;;6.18;;
47866;SDS011;33628;50.806;11.586;2023-11-22T11:36:32;12.30;;;5.72;;
47866;SDS011;33628;50.806;11.586;2023-11-22T11:38:59;9.85;;;6.65;;
47866;SDS011;33628;50.806;11.586;2023-11-22T11:41:31;13.95;;;6.88;;
47866;SDS011;33628;50.806;11.586;2023-11-22T11:44:06;10.80;;;6.68;;
47866;SDS011;33628;50.806;11.586;2023-11-22T11:46:35;11.68;;;6.80;;
47866;SDS011;33628;50.806;11.586;2023-11-22T11:49:06;9.90;;;6.55;;
47866;SDS011;33628;50.806;11.586;2023-11-22T11:51:34;14.65;;;6.72;;
47866;SDS011;33628;50.806;11.586;2023-11-22T11:54:02;12.70;;;6.82;;
47866;SDS011;33628;50.806;11.586;2023-11-22T11:56:28;11.70;;;6.22;;
47866;SDS011;33628;50.806;11.586;2023-11-22T11:58:56;9.52;;;6.07;;
47866;SDS011;33628;50.806;11.586;2023-11-22T12:01:28;15.02;;;6.43;;
47866;SDS011;33628;50.806;11.586;2023-11-22T12:03:55;12.48;;;7.03;;
47866;SDS011;33628;50.806;11.586;2023-11-22T12:06:22;12.85;;;6.97;;
47866;SDS011;33628;50.806;11.586;2023-11-22T12:08:49;10.38;;;6.25;;
47866;SDS011;33628;50.806;11.586;2023-11-22T12:11:16;10.98;;;6.18;;
47866;SDS011;33628;50.806;11.586;2023-11-22T12:13:44;10.25;;;6.25;;
47866;SDS011;33628;50.806;11.586;2023-11-22T12:16:14;11.18;;;6.25;;
47866;SDS011;33628;50.806;11.586;2023-11-22T12:18:44;11.48;;;6.35;;
47866;SDS011;33628;50.806;11.586;2023-11-22T12:21:11;10.73;;;6.47;;
47866;SDS011;33628;50.806;11.586;2023-11-22T12:23:41;13.57;;;6.68;;
47866;SDS011;33628;50.806;11.586;2023-11-22T12:26:09;11.80;;;6.97;;
47866;SDS011;33628;50.806;11.586;2023-11-22T12:28:38;13.40;;;7.70;;
47866;SDS011;33628;50.806;11.586;2023-11-22T12:31:06;10.23;;;6.40;;
47866;SDS011;33628;50.806;11.586;2023-11-22T12:33:34;11.15;;;6.53;;
47866;SDS011;33628;50.806;11.586;2023-11-22T12:36:02;14.15;;;7.38;;
47866;SDS011;33628;50.806;11.586;2023-11-22T12:38:29;14.10;;;6.72;;
47866;SDS011;33628;50.806;11.586;2023-11-22T12:40:56;13.52;;;7.20;;
47866;SDS011;33628;50.806;11.586;2023-11-22T12:43:23;11.40;;;6.47;;
47866;SDS011;33628;50.806;11.586;2023-11-22T12:45:58;12.90;;;7.28;;
47866;SDS011;33628;50.806;11.586;2023-11-22T12:48:25;12.13;;;7.38;;
47866;SDS011;33628;50.806;11.586;2023-11-22T12:50:55;15.35;;;7.07;;
47866;SDS011;33628;50.806;11.586;2023-11-22T12:53:24;12.10;;;6.72;;
47866;SDS011;33628;50.806;11.586;2023-11-22T12:55:55;14.02;;;6.13;;
47866;SDS011;33628;50.806;11.586;2023-11-22T12:58:22;20.00;;;10.40;;
47866;SDS011;33628;50.806;11.586;2023-11-22T13:00:50;18.23;;;8.85;;
47866;SDS011;33628;50.806;11.586;2023-11-22T13:03:20;32.17;;;15.57;;
47866;SDS011;33628;50.806;11.586;2023-11-22T13:05:47;13.05;;;7.55;;
47866;SDS011;33628;50.806;11.586;2023-11-22T13:08:14;14.15;;;7.35;;
47866;SDS011;33628;50.806;11.586;2023-11-22T13:10:44;13.73;;;7.55;;
47866;SDS011;33628;50.806;11.586;2023-11-22T13:13:19;17.40;;;8.02;;
47866;SDS011;33628;50.806;11.586;2023-11-22T13:15:46;12.02;;;6.30;;
47866;SDS011;33628;50.806;11.586;2023-11-22T13:18:13;10.63;;;6.80;;
47866;SDS011;33628;50.806;11.586;2023-11-22T13:20:40;10.32;;;6.25;;
47866;SDS011;33628;50.806;11.586;2023-11-22T13:23:06;14.77;;;7.32;;
47866;SDS011;33628;50.806;11.586;2023-11-22T13:25:33;11.27;;;7.05;;
47866;SDS011;33628;50.806;11.586;2023-11-22T13:28:01;15.45;;;8.45;;
47866;SDS011;33628;50.806;11.586;2023-11-22T13:30:28;10.35;;;5.53;;
47866;SDS011;33628;50.806;11.586;2023-11-22T13:32:55;11.80;;;7.55;;
47866;SDS011;33628;50.806;11.586;2023-11-22T13:35:25;10.05;;;5.97;;
47866;SDS011;33628;50.806;11.586;2023-11-22T13:37:56;12.57;;;5.82;;
47866;SDS011;33628;50.806;11.586;2023-11-22T13:40:24;12.80;;;6.57;;
47866;SDS011;33628;50.806;11.586;2023-11-22T13:42:53;10.85;;;6.90;;
47866;SDS011;33628;50.806;11.586;2023-11-22T13:45:21;11.88;;;6.63;;
47866;SDS011;33628;50.806;11.586;2023-11-22T13:47:49;13.73;;;7.47;;
47866;SDS011;33628;50.806;11.586;2023-11-22T13:50:17;17.52;;;9.18;;
47866;SDS011;33628;50.806;11.586;2023-11-22T13:52:52;10.35;;;5.80;;
47866;SDS011;33628;50.806;11.586;2023-11-22T13:55:20;11.93;;;7.10;;
47866;SDS011;33628;50.806;11.586;2023-11-22T13:57:50;13.85;;;7.03;;
47866;SDS011;33628;50.806;11.586;2023-11-22T14:00:18;12.07;;;6.53;;
47866;SDS011;33628;50.806;11.586;2023-11-22T14:02:52;11.20;;;6.45;;
47866;SDS011;33628;50.806;11.586;2023-11-22T14:05:22;13.23;;;7.78;;
47866;SDS011;33628;50.806;11.586;2023-11-22T14:07:49;15.32;;;7.55;;
47866;SDS011;33628;50.806;11.586;2023-11-22T14:10:17;16.15;;;7.75;;
47866;SDS011;33628;50.806;11.586;2023-11-22T14:12:44;14.02;;;7.28;;
47866;SDS011;33628;50.806;11.586;2023-11-22T14:15:12;15.15;;;7.28;;
47866;SDS011;33628;50.806;11.586;2023-11-22T14:17:40;11.23;;;6.32;;
47866;SDS011;33628;50.806;11.586;2023-11-22T14:20:08;11.65;;;7.13;;
47866;SDS011;33628;50.806;11.586;2023-11-22T14:22:35;12.75;;;6.80;;
47866;SDS011;33628;50.806;11.586;2023-11-22T14:25:02;11.77;;;5.72;;